sensor_id;sensor_type;location;lat;lon;timestamp;P1;durP1;ratioP1;P2;durP2;ratioP2
26820;SDS011;37186;51.394;5.454;2023-05-20T00:01:22;9.85;;;9.55;;
26820;SDS011;37186;51.394;5.454;2023-05-20T00:04:22;9.65;;;9.35;;
26820;SDS011;37186;51.394;5.454;2023-05-20T00:07:23;9.77;;;9.48;;
26820;SDS011;37186;51.394;5.454;2023-05-20T00:10:23;9.40;;;9.10;;
26820;SDS011;37186;51.394;5.454;2023-05-20T00:13:24;9.82;;;9.52;;
26820;SDS011;37186;51.394;5.454;2023-05-20T00:16:25;9.45;;;9.15;;
26820;SDS011;37186;51.394;5.454;2023-05-20T00:19:25;9.55;;;9.25;;
26820;SDS011;37186;51.394;5.454;2023-05-20T00:22:26;9.85;;;9.55;;
26820;SDS011;37186;51.394;5.454;2023-05-20T00:25:26;9.27;;;8.98;;
26820;SDS011;37186;51.394;5.454;2023-05-20T00:28:27;9.23;;;8.93;;
26820;SDS011;37186;51.394;5.454;2023-05-20T00:31:27;9.77;;;9.48;;
26820;SDS011;37186;51.394;5.454;2023-05-20T00:34:28;9.35;;;9.05;;
26820;SDS011;37186;51.394;5.454;2023-05-20T00:37:28;8.65;;;8.45;;
26820;SDS011;37186;51.394;5.454;2023-05-20T00:40:29;9.18;;;8.88;;
26820;SDS011;37186;51.394;5.454;2023-05-20T00:43:29;9.63;;;9.32;;
26820;SDS011;37186;51.394;5.454;2023-05-20T00:46:30;10.30;;;10.00;;
26820;SDS011;37186;51.394;5.454;2023-05-20T00:49:30;10.00;;;9.70;;
26820;SDS011;37186;51.394;5.454;2023-05-20T00:52:31;9.95;;;9.65;;
26820;SDS011;37186;51.394;5.454;2023-05-20T00:55:32;9.95;;;9.65;;
26820;SDS011;37186;51.394;5.454;2023-05-20T00:58:33;9.23;;;8.95;;
26820;SDS011;37186;51.394;5.454;2023-05-20T01:01:35;8.88;;;8.63;;
26820;SDS011;37186;51.394;5.454;2023-05-20T01:04:36;8.38;;;8.18;;
26820;SDS011;37186;51.394;5.454;2023-05-20T01:07:36;7.55;;;7.35;;
26820;SDS011;37186;51.394;5.454;2023-05-20T01:10:38;6.50;;;6.30;;
26820;SDS011;37186;51.394;5.454;2023-05-20T01:13:46;6.43;;;6.22;;
26820;SDS011;37186;51.394;5.454;2023-05-20T01:16:52;5.85;;;5.68;;
26820;SDS011;37186;51.394;5.454;2023-05-20T01:19:55;5.97;;;5.78;;
26820;SDS011;37186;51.394;5.454;2023-05-20T01:22:58;5.72;;;5.57;;
26820;SDS011;37186;51.394;5.454;2023-05-20T01:25:59;5.43;;;5.32;;
26820;SDS011;37186;51.394;5.454;2023-05-20T01:28:59;5.53;;;5.43;;
26820;SDS011;37186;51.394;5.454;2023-05-20T01:32:04;4.90;;;4.80;;
26820;SDS011;37186;51.394;5.454;2023-05-20T01:35:09;4.47;;;4.38;;
26820;SDS011;37186;51.394;5.454;2023-05-20T01:38:10;3.88;;;3.78;;
26820;SDS011;37186;51.394;5.454;2023-05-20T01:41:11;3.88;;;3.78;;
26820;SDS011;37186;51.394;5.454;2023-05-20T01:44:12;3.75;;;3.65;;
26820;SDS011;37186;51.394;5.454;2023-05-20T01:47:12;3.92;;;3.83;;
26820;SDS011;37186;51.394;5.454;2023-05-20T01:50:13;3.88;;;3.78;;
26820;SDS011;37186;51.394;5.454;2023-05-20T01:53:13;3.83;;;3.72;;
26820;SDS011;37186;51.394;5.454;2023-05-20T01:56:14;3.97;;;3.88;;
26820;SDS011;37186;51.394;5.454;2023-05-20T01:59:15;3.92;;;3.83;;
26820;SDS011;37186;51.394;5.454;2023-05-20T02:02:15;3.88;;;3.78;;
26820;SDS011;37186;51.394;5.454;2023-05-20T02:05:16;3.88;;;3.78;;
26820;SDS011;37186;51.394;5.454;2023-05-20T02:08:17;3.83;;;3.72;;
26820;SDS011;37186;51.394;5.454;2023-05-20T02:11:17;3.53;;;3.42;;
26820;SDS011;37186;51.394;5.454;2023-05-20T02:14:18;3.60;;;3.50;;
26820;SDS011;37186;51.394;5.454;2023-05-20T02:17:18;3.67;;;3.58;;
26820;SDS011;37186;51.394;5.454;2023-05-20T02:20:19;3.63;;;3.53;;
26820;SDS011;37186;51.394;5.454;2023-05-20T02:23:19;3.40;;;3.30;;
26820;SDS011;37186;51.394;5.454;2023-05-20T02:26:20;3.38;;;3.28;;
26820;SDS011;37186;51.394;5.454;2023-05-20T02:29:21;3.63;;;3.53;;
26820;SDS011;37186;51.394;5.454;2023-05-20T02:32:22;3.47;;;3.38;;
26820;SDS011;37186;51.394;5.454;2023-05-20T02:35:26;3.35;;;3.25;;
26820;SDS011;37186;51.394;5.454;2023-05-20T02:38:27;3.25;;;3.15;;
26820;SDS011;37186;51.394;5.454;2023-05-20T02:41:28;3.15;;;3.05;;
26820;SDS011;37186;51.394;5.454;2023-05-20T02:44:28;2.95;;;2.85;;
26820;SDS011;37186;51.394;5.454;2023-05-20T02:47:29;3.20;;;3.10;;
26820;SDS011;37186;51.394;5.454;2023-05-20T02:50:29;3.20;;;3.10;;
26820;SDS011;37186;51.394;5.454;2023-05-20T02:53:30;2.90;;;2.80;;
26820;SDS011;37186;51.394;5.454;2023-05-20T02:56:30;2.97;;;2.87;;
26820;SDS011;37186;51.394;5.454;2023-05-20T02:59:31;2.90;;;2.80;;
26820;SDS011;37186;51.394;5.454;2023-05-20T03:02:32;2.77;;;2.73;;
26820;SDS011;37186;51.394;5.454;2023-05-20T03:05:33;2.77;;;2.70;;
26820;SDS011;37186;51.394;5.454;2023-05-20T03:08:36;2.65;;;2.65;;
26820;SDS011;37186;51.394;5.454;2023-05-20T03:11:38;2.80;;;2.70;;
26820;SDS011;37186;51.394;5.454;2023-05-20T03:14:39;2.90;;;2.80;;
26820;SDS011;37186;51.394;5.454;2023-05-20T03:17:39;2.80;;;2.70;;
26820;SDS011;37186;51.394;5.454;2023-05-20T03:20:40;2.90;;;2.80;;
26820;SDS011;37186;51.394;5.454;2023-05-20T03:23:41;3.10;;;3.00;;
26820;SDS011;37186;51.394;5.454;2023-05-20T03:26:41;2.90;;;2.80;;
26820;SDS011;37186;51.394;5.454;2023-05-20T03:29:42;2.80;;;2.70;;
26820;SDS011;37186;51.394;5.454;2023-05-20T03:32:43;3.00;;;2.90;;
26820;SDS011;37186;51.394;5.454;2023-05-20T03:35:43;3.10;;;3.00;;
26820;SDS011;37186;51.394;5.454;2023-05-20T03:38:44;3.00;;;2.90;;
26820;SDS011;37186;51.394;5.454;2023-05-20T03:41:45;2.90;;;2.80;;
26820;SDS011;37186;51.394;5.454;2023-05-20T03:44:45;3.00;;;2.90;;
26820;SDS011;37186;51.394;5.454;2023-05-20T03:47:46;3.10;;;3.00;;
26820;SDS011;37186;51.394;5.454;2023-05-20T03:50:46;3.10;;;3.00;;
26820;SDS011;37186;51.394;5.454;2023-05-20T03:53:47;3.67;;;3.57;;
26820;SDS011;37186;51.394;5.454;2023-05-20T03:56:47;3.73;;;3.63;;
26820;SDS011;37186;51.394;5.454;2023-05-20T03:59:48;3.88;;;3.78;;
26820;SDS011;37186;51.394;5.454;2023-05-20T04:02:48;3.67;;;3.57;;
26820;SDS011;37186;51.394;5.454;2023-05-20T04:05:49;3.90;;;3.80;;
26820;SDS011;37186;51.394;5.454;2023-05-20T04:08:50;3.80;;;3.70;;
26820;SDS011;37186;51.394;5.454;2023-05-20T04:11:51;3.70;;;3.60;;
26820;SDS011;37186;51.394;5.454;2023-05-20T04:14:52;3.77;;;3.67;;
26820;SDS011;37186;51.394;5.454;2023-05-20T04:17:54;3.67;;;3.57;;
26820;SDS011;37186;51.394;5.454;2023-05-20T04:20:55;3.80;;;3.70;;
26820;SDS011;37186;51.394;5.454;2023-05-20T04:23:55;3.90;;;3.80;;
26820;SDS011;37186;51.394;5.454;2023-05-20T04:26:56;4.03;;;3.93;;
26820;SDS011;37186;51.394;5.454;2023-05-20T04:29:57;3.80;;;3.70;;
26820;SDS011;37186;51.394;5.454;2023-05-20T04:32:57;3.73;;;3.63;;
26820;SDS011;37186;51.394;5.454;2023-05-20T04:36:01;3.93;;;3.83;;
26820;SDS011;37186;51.394;5.454;2023-05-20T04:39:04;3.87;;;3.77;;
26820;SDS011;37186;51.394;5.454;2023-05-20T04:42:06;3.80;;;3.70;;
26820;SDS011;37186;51.394;5.454;2023-05-20T04:45:07;3.78;;;3.67;;
26820;SDS011;37186;51.394;5.454;2023-05-20T04:48:07;3.93;;;3.83;;
26820;SDS011;37186;51.394;5.454;2023-05-20T04:51:08;3.83;;;3.73;;
26820;SDS011;37186;51.394;5.454;2023-05-20T04:54:09;3.83;;;3.73;;
26820;SDS011;37186;51.394;5.454;2023-05-20T04:57:10;3.97;;;3.87;;
26820;SDS011;37186;51.394;5.454;2023-05-20T05:00:11;4.17;;;4.07;;
26820;SDS011;37186;51.394;5.454;2023-05-20T05:03:12;3.77;;;3.67;;
26820;SDS011;37186;51.394;5.454;2023-05-20T05:06:12;3.77;;;3.67;;
26820;SDS011;37186;51.394;5.454;2023-05-20T05:09:13;3.77;;;3.67;;
26820;SDS011;37186;51.394;5.454;2023-05-20T05:12:14;3.70;;;3.60;;
26820;SDS011;37186;51.394;5.454;2023-05-20T05:15:15;4.10;;;4.00;;
26820;SDS011;37186;51.394;5.454;2023-05-20T05:18:15;4.27;;;4.17;;
26820;SDS011;37186;51.394;5.454;2023-05-20T05:21:17;4.40;;;4.30;;
26820;SDS011;37186;51.394;5.454;2023-05-20T05:24:17;4.43;;;4.32;;
26820;SDS011;37186;51.394;5.454;2023-05-20T05:27:18;4.77;;;4.67;;
26820;SDS011;37186;51.394;5.454;2023-05-20T05:30:19;5.83;;;5.67;;
26820;SDS011;37186;51.394;5.454;2023-05-20T05:33:21;5.30;;;5.20;;
26820;SDS011;37186;51.394;5.454;2023-05-20T05:36:22;5.10;;;5.00;;
26820;SDS011;37186;51.394;5.454;2023-05-20T05:39:24;4.50;;;4.40;;
26820;SDS011;37186;51.394;5.454;2023-05-20T05:42:25;4.67;;;4.57;;
26820;SDS011;37186;51.394;5.454;2023-05-20T05:45:26;4.60;;;4.50;;
26820;SDS011;37186;51.394;5.454;2023-05-20T05:48:26;4.60;;;4.50;;
26820;SDS011;37186;51.394;5.454;2023-05-20T05:51:27;4.60;;;4.50;;
26820;SDS011;37186;51.394;5.454;2023-05-20T05:54:28;4.50;;;4.40;;
26820;SDS011;37186;51.394;5.454;2023-05-20T05:57:28;4.67;;;4.57;;
26820;SDS011;37186;51.394;5.454;2023-05-20T06:00:29;4.50;;;4.40;;
26820;SDS011;37186;51.394;5.454;2023-05-20T06:03:29;4.38;;;4.28;;
26820;SDS011;37186;51.394;5.454;2023-05-20T06:06:30;4.10;;;4.00;;
26820;SDS011;37186;51.394;5.454;2023-05-20T06:09:30;4.35;;;4.25;;
26820;SDS011;37186;51.394;5.454;2023-05-20T06:12:31;4.63;;;4.53;;
26820;SDS011;37186;51.394;5.454;2023-05-20T06:15:31;4.47;;;4.37;;
26820;SDS011;37186;51.394;5.454;2023-05-20T06:18:32;4.65;;;4.55;;
26820;SDS011;37186;51.394;5.454;2023-05-20T06:21:32;4.55;;;4.45;;
26820;SDS011;37186;51.394;5.454;2023-05-20T06:24:33;4.32;;;4.22;;
26820;SDS011;37186;51.394;5.454;2023-05-20T06:27:33;4.67;;;4.57;;
26820;SDS011;37186;51.394;5.454;2023-05-20T06:30:34;4.57;;;4.47;;
26820;SDS011;37186;51.394;5.454;2023-05-20T06:33:34;4.90;;;4.80;;
26820;SDS011;37186;51.394;5.454;2023-05-20T06:36:35;5.37;;;5.27;;
26820;SDS011;37186;51.394;5.454;2023-05-20T06:39:36;5.47;;;5.38;;
26820;SDS011;37186;51.394;5.454;2023-05-20T06:42:37;5.45;;;5.35;;
26820;SDS011;37186;51.394;5.454;2023-05-20T06:45:37;5.57;;;5.45;;
26820;SDS011;37186;51.394;5.454;2023-05-20T06:48:38;5.45;;;5.35;;
26820;SDS011;37186;51.394;5.454;2023-05-20T06:51:38;7.18;;;6.97;;
26820;SDS011;37186;51.394;5.454;2023-05-20T06:54:39;7.55;;;7.35;;
26820;SDS011;37186;51.394;5.454;2023-05-20T06:57:40;6.22;;;6.03;;
26820;SDS011;37186;51.394;5.454;2023-05-20T07:00:40;5.90;;;5.70;;
26820;SDS011;37186;51.394;5.454;2023-05-20T07:03:41;5.90;;;5.70;;
26820;SDS011;37186;51.394;5.454;2023-05-20T07:06:43;5.32;;;5.22;;
26820;SDS011;37186;51.394;5.454;2023-05-20T07:09:43;5.90;;;5.72;;
26820;SDS011;37186;51.394;5.454;2023-05-20T07:12:44;5.85;;;5.70;;
26820;SDS011;37186;51.394;5.454;2023-05-20T07:15:45;6.10;;;5.90;;
26820;SDS011;37186;51.394;5.454;2023-05-20T07:18:46;6.55;;;6.35;;
26820;SDS011;37186;51.394;5.454;2023-05-20T07:21:47;6.25;;;6.05;;
26820;SDS011;37186;51.394;5.454;2023-05-20T07:24:48;5.97;;;5.80;;
26820;SDS011;37186;51.394;5.454;2023-05-20T07:27:49;5.78;;;5.60;;
26820;SDS011;37186;51.394;5.454;2023-05-20T07:30:49;5.70;;;5.55;;
26820;SDS011;37186;51.394;5.454;2023-05-20T07:33:50;5.60;;;5.50;;
26820;SDS011;37186;51.394;5.454;2023-05-20T07:36:50;4.88;;;4.78;;
26820;SDS011;37186;51.394;5.454;2023-05-20T07:39:52;5.10;;;5.00;;
26820;SDS011;37186;51.394;5.454;2023-05-20T07:42:52;5.25;;;5.15;;
26820;SDS011;37186;51.394;5.454;2023-05-20T07:45:53;5.63;;;5.50;;
26820;SDS011;37186;51.394;5.454;2023-05-20T07:48:53;5.68;;;5.53;;
26820;SDS011;37186;51.394;5.454;2023-05-20T07:51:54;6.38;;;6.18;;
26820;SDS011;37186;51.394;5.454;2023-05-20T07:54:54;6.60;;;6.40;;
26820;SDS011;37186;51.394;5.454;2023-05-20T07:57:55;7.05;;;6.85;;
26820;SDS011;37186;51.394;5.454;2023-05-20T08:00:56;6.80;;;6.60;;
26820;SDS011;37186;51.394;5.454;2023-05-20T08:03:56;7.78;;;7.57;;
26820;SDS011;37186;51.394;5.454;2023-05-20T08:06:57;7.82;;;7.63;;
26820;SDS011;37186;51.394;5.454;2023-05-20T08:09:58;8.10;;;7.90;;
26820;SDS011;37186;51.394;5.454;2023-05-20T08:12:58;7.65;;;7.45;;
26820;SDS011;37186;51.394;5.454;2023-05-20T08:15:59;7.95;;;7.75;;
26820;SDS011;37186;51.394;5.454;2023-05-20T08:19:00;7.65;;;7.45;;
26820;SDS011;37186;51.394;5.454;2023-05-20T08:22:00;7.95;;;7.75;;
26820;SDS011;37186;51.394;5.454;2023-05-20T08:25:01;7.65;;;7.45;;
26820;SDS011;37186;51.394;5.454;2023-05-20T08:28:02;7.93;;;7.72;;
26820;SDS011;37186;51.394;5.454;2023-05-20T08:31:04;7.97;;;7.78;;
26820;SDS011;37186;51.394;5.454;2023-05-20T08:34:05;7.53;;;7.32;;
26820;SDS011;37186;51.394;5.454;2023-05-20T08:37:06;7.55;;;7.35;;
26820;SDS011;37186;51.394;5.454;2023-05-20T08:40:07;7.35;;;7.15;;
26820;SDS011;37186;51.394;5.454;2023-05-20T08:43:08;7.47;;;7.28;;
26820;SDS011;37186;51.394;5.454;2023-05-20T08:46:09;65.43;;;63.00;;
26820;SDS011;37186;51.394;5.454;2023-05-20T08:49:10;21.25;;;20.55;;
26820;SDS011;37186;51.394;5.454;2023-05-20T08:52:11;12.63;;;12.23;;
26820;SDS011;37186;51.394;5.454;2023-05-20T08:55:31;9.88;;;9.57;;
26820;SDS011;37186;51.394;5.454;2023-05-20T08:58:38;9.75;;;9.45;;
26820;SDS011;37186;51.394;5.454;2023-05-20T09:01:43;10.68;;;10.38;;
26820;SDS011;37186;51.394;5.454;2023-05-20T09:04:43;9.00;;;8.73;;
26820;SDS011;37186;51.394;5.454;2023-05-20T09:07:44;9.85;;;9.55;;
26820;SDS011;37186;51.394;5.454;2023-05-20T09:10:44;9.82;;;9.52;;
26820;SDS011;37186;51.394;5.454;2023-05-20T09:13:45;10.02;;;9.73;;
26820;SDS011;37186;51.394;5.454;2023-05-20T09:16:46;10.10;;;9.80;;
26820;SDS011;37186;51.394;5.454;2023-05-20T09:19:51;10.68;;;10.38;;
26820;SDS011;37186;51.394;5.454;2023-05-20T09:22:52;9.80;;;9.50;;
26820;SDS011;37186;51.394;5.454;2023-05-20T09:25:53;10.52;;;10.23;;
26820;SDS011;37186;51.394;5.454;2023-05-20T09:28:57;11.30;;;10.98;;
26820;SDS011;37186;51.394;5.454;2023-05-20T09:32:00;11.43;;;11.10;;
26820;SDS011;37186;51.394;5.454;2023-05-20T09:35:01;12.02;;;11.68;;
26820;SDS011;37186;51.394;5.454;2023-05-20T09:38:03;14.05;;;13.63;;
26820;SDS011;37186;51.394;5.454;2023-05-20T09:41:06;14.02;;;13.60;;
26820;SDS011;37186;51.394;5.454;2023-05-20T09:44:10;14.57;;;14.13;;
26820;SDS011;37186;51.394;5.454;2023-05-20T09:47:11;16.05;;;15.55;;
26820;SDS011;37186;51.394;5.454;2023-05-20T09:50:12;16.55;;;16.05;;
26820;SDS011;37186;51.394;5.454;2023-05-20T09:53:14;16.38;;;15.88;;
26820;SDS011;37186;51.394;5.454;2023-05-20T09:56:15;17.08;;;16.52;;
26820;SDS011;37186;51.394;5.454;2023-05-20T09:59:18;17.35;;;16.80;;
26820;SDS011;37186;51.394;5.454;2023-05-20T10:02:21;18.80;;;18.20;;
26820;SDS011;37186;51.394;5.454;2023-05-20T10:05:22;19.67;;;19.05;;
26820;SDS011;37186;51.394;5.454;2023-05-20T10:08:31;18.08;;;17.50;;
26820;SDS011;37186;51.394;5.454;2023-05-20T10:11:49;19.23;;;18.60;;
26820;SDS011;37186;51.394;5.454;2023-05-20T10:18:39;21.42;;;20.73;;
26820;SDS011;37186;51.394;5.454;2023-05-20T10:21:58;22.80;;;22.05;;
26820;SDS011;37186;51.394;5.454;2023-05-20T10:25:04;25.17;;;24.33;;
26820;SDS011;37186;51.394;5.454;2023-05-20T10:28:07;26.17;;;25.30;;
26820;SDS011;37186;51.394;5.454;2023-05-20T10:31:20;27.90;;;26.95;;
26820;SDS011;37186;51.394;5.454;2023-05-20T10:34:21;30.48;;;29.42;;
26820;SDS011;37186;51.394;5.454;2023-05-20T10:37:29;28.73;;;27.75;;
26820;SDS011;37186;51.394;5.454;2023-05-20T10:40:31;31.25;;;30.17;;
26820;SDS011;37186;51.394;5.454;2023-05-20T10:43:32;27.33;;;26.40;;
26820;SDS011;37186;51.394;5.454;2023-05-20T10:46:32;28.85;;;27.88;;
26820;SDS011;37186;51.394;5.454;2023-05-20T10:49:34;30.02;;;29.00;;
26820;SDS011;37186;51.394;5.454;2023-05-20T10:52:35;27.92;;;26.98;;
26820;SDS011;37186;51.394;5.454;2023-05-20T10:55:36;26.52;;;25.63;;
26820;SDS011;37186;51.394;5.454;2023-05-20T10:58:38;28.73;;;27.75;;
26820;SDS011;37186;51.394;5.454;2023-05-20T11:01:39;29.23;;;28.25;;
26820;SDS011;37186;51.394;5.454;2023-05-20T11:04:42;27.42;;;26.50;;
26820;SDS011;37186;51.394;5.454;2023-05-20T11:07:44;29.10;;;28.10;;
26820;SDS011;37186;51.394;5.454;2023-05-20T11:10:44;28.02;;;27.08;;
26820;SDS011;37186;51.394;5.454;2023-05-20T11:13:49;29.20;;;28.23;;
26820;SDS011;37186;51.394;5.454;2023-05-20T11:16:50;28.85;;;27.85;;
26820;SDS011;37186;51.394;5.454;2023-05-20T11:19:52;30.35;;;29.33;;
26820;SDS011;37186;51.394;5.454;2023-05-20T11:22:53;26.73;;;25.83;;
26820;SDS011;37186;51.394;5.454;2023-05-20T11:25:54;27.45;;;26.55;;
26820;SDS011;37186;51.394;5.454;2023-05-20T11:28:55;27.98;;;27.05;;
26820;SDS011;37186;51.394;5.454;2023-05-20T11:31:56;29.45;;;28.45;;
26820;SDS011;37186;51.394;5.454;2023-05-20T11:34:59;30.50;;;29.45;;
26820;SDS011;37186;51.394;5.454;2023-05-20T11:38:00;32.28;;;31.15;;
26820;SDS011;37186;51.394;5.454;2023-05-20T11:41:06;31.25;;;30.17;;
26820;SDS011;37186;51.394;5.454;2023-05-20T11:44:09;32.05;;;30.95;;
26820;SDS011;37186;51.394;5.454;2023-05-20T11:47:13;29.48;;;28.48;;
26820;SDS011;37186;51.394;5.454;2023-05-20T11:50:17;29.05;;;28.08;;
26820;SDS011;37186;51.394;5.454;2023-05-20T11:53:18;27.73;;;26.77;;
26820;SDS011;37186;51.394;5.454;2023-05-20T11:56:20;26.35;;;25.48;;
26820;SDS011;37186;51.394;5.454;2023-05-20T11:59:22;27.65;;;26.75;;
26820;SDS011;37186;51.394;5.454;2023-05-20T12:02:23;31.55;;;30.48;;
26820;SDS011;37186;51.394;5.454;2023-05-20T12:05:23;28.88;;;27.90;;
26820;SDS011;37186;51.394;5.454;2023-05-20T12:08:24;27.85;;;26.92;;
26820;SDS011;37186;51.394;5.454;2023-05-20T12:11:24;26.92;;;26.02;;
26820;SDS011;37186;51.394;5.454;2023-05-20T12:14:25;28.08;;;27.13;;
26820;SDS011;37186;51.394;5.454;2023-05-20T12:17:25;26.73;;;25.83;;
26820;SDS011;37186;51.394;5.454;2023-05-20T12:20:26;28.23;;;27.27;;
26820;SDS011;37186;51.394;5.454;2023-05-20T12:23:27;28.80;;;27.83;;
26820;SDS011;37186;51.394;5.454;2023-05-20T12:26:32;28.65;;;27.65;;
26820;SDS011;37186;51.394;5.454;2023-05-20T12:29:34;6.88;;;6.68;;
26820;SDS011;37186;51.394;5.454;2023-05-20T12:32:37;6.15;;;5.95;;
26820;SDS011;37186;51.394;5.454;2023-05-20T12:35:38;31.88;;;30.73;;
26820;SDS011;37186;51.394;5.454;2023-05-20T12:38:40;29.92;;;28.85;;
26820;SDS011;37186;51.394;5.454;2023-05-20T12:41:41;30.88;;;29.77;;
26820;SDS011;37186;51.394;5.454;2023-05-20T12:44:42;26.88;;;25.92;;
26820;SDS011;37186;51.394;5.454;2023-05-20T12:47:42;26.88;;;25.92;;
26820;SDS011;37186;51.394;5.454;2023-05-20T12:50:43;25.80;;;24.90;;
26820;SDS011;37186;51.394;5.454;2023-05-20T12:53:44;23.20;;;22.40;;
26820;SDS011;37186;51.394;5.454;2023-05-20T12:56:45;22.85;;;22.05;;
26820;SDS011;37186;51.394;5.454;2023-05-20T12:59:48;25.90;;;25.00;;
26820;SDS011;37186;51.394;5.454;2023-05-20T13:02:49;24.15;;;23.33;;
26820;SDS011;37186;51.394;5.454;2023-05-20T13:05:51;22.67;;;21.90;;
26820;SDS011;37186;51.394;5.454;2023-05-20T13:08:51;22.13;;;21.38;;
26820;SDS011;37186;51.394;5.454;2023-05-20T13:11:52;23.25;;;22.45;;
26820;SDS011;37186;51.394;5.454;2023-05-20T13:14:52;24.85;;;23.98;;
26820;SDS011;37186;51.394;5.454;2023-05-20T13:17:53;23.23;;;22.40;;
26820;SDS011;37186;51.394;5.454;2023-05-20T13:20:53;22.85;;;22.05;;
26820;SDS011;37186;51.394;5.454;2023-05-20T13:23:54;20.38;;;19.70;;
26820;SDS011;37186;51.394;5.454;2023-05-20T13:26:55;22.50;;;21.73;;
26820;SDS011;37186;51.394;5.454;2023-05-20T13:29:56;24.92;;;24.05;;
26820;SDS011;37186;51.394;5.454;2023-05-20T13:32:56;22.85;;;22.08;;
26820;SDS011;37186;51.394;5.454;2023-05-20T13:35:57;25.35;;;24.45;;
26820;SDS011;37186;51.394;5.454;2023-05-20T13:38:57;26.73;;;25.77;;
26820;SDS011;37186;51.394;5.454;2023-05-20T13:41:58;30.95;;;29.77;;
26820;SDS011;37186;51.394;5.454;2023-05-20T13:44:59;21.17;;;20.42;;
26820;SDS011;37186;51.394;5.454;2023-05-20T13:47:59;29.90;;;28.80;;
26820;SDS011;37186;51.394;5.454;2023-05-20T13:51:00;25.27;;;24.35;;
26820;SDS011;37186;51.394;5.454;2023-05-20T13:54:00;21.23;;;20.42;;
26820;SDS011;37186;51.394;5.454;2023-05-20T13:57:01;21.98;;;21.17;;
26820;SDS011;37186;51.394;5.454;2023-05-20T14:00:06;20.95;;;20.20;;
26820;SDS011;37186;51.394;5.454;2023-05-20T14:03:08;22.38;;;21.58;;
26820;SDS011;37186;51.394;5.454;2023-05-20T14:06:09;21.10;;;20.35;;
26820;SDS011;37186;51.394;5.454;2023-05-20T14:09:09;22.52;;;21.73;;
26820;SDS011;37186;51.394;5.454;2023-05-20T14:12:10;25.05;;;24.15;;
26820;SDS011;37186;51.394;5.454;2023-05-20T14:15:10;23.50;;;22.65;;
26820;SDS011;37186;51.394;5.454;2023-05-20T14:18:11;19.00;;;18.35;;
26820;SDS011;37186;51.394;5.454;2023-05-20T14:21:12;21.10;;;20.35;;
26820;SDS011;37186;51.394;5.454;2023-05-20T14:24:12;20.17;;;19.48;;
26820;SDS011;37186;51.394;5.454;2023-05-20T14:27:13;19.42;;;18.75;;
26820;SDS011;37186;51.394;5.454;2023-05-20T14:30:14;20.00;;;19.30;;
26820;SDS011;37186;51.394;5.454;2023-05-20T14:33:14;20.98;;;20.25;;
26820;SDS011;37186;51.394;5.454;2023-05-20T14:36:15;19.55;;;18.88;;
26820;SDS011;37186;51.394;5.454;2023-05-20T14:39:15;19.92;;;19.27;;
26820;SDS011;37186;51.394;5.454;2023-05-20T14:42:16;17.70;;;17.10;;
26820;SDS011;37186;51.394;5.454;2023-05-20T14:45:16;20.83;;;20.13;;
26820;SDS011;37186;51.394;5.454;2023-05-20T14:48:19;20.77;;;20.05;;
26820;SDS011;37186;51.394;5.454;2023-05-20T14:51:19;17.20;;;16.63;;
26820;SDS011;37186;51.394;5.454;2023-05-20T14:54:20;17.58;;;16.98;;
26820;SDS011;37186;51.394;5.454;2023-05-20T14:57:23;19.30;;;18.65;;
26820;SDS011;37186;51.394;5.454;2023-05-20T15:00:24;22.63;;;21.85;;
26820;SDS011;37186;51.394;5.454;2023-05-20T15:03:24;21.13;;;20.42;;
26820;SDS011;37186;51.394;5.454;2023-05-20T15:06:26;20.58;;;19.85;;
26820;SDS011;37186;51.394;5.454;2023-05-20T15:09:27;18.30;;;17.70;;
26820;SDS011;37186;51.394;5.454;2023-05-20T15:12:27;22.48;;;21.70;;
26820;SDS011;37186;51.394;5.454;2023-05-20T15:15:28;24.70;;;23.85;;
26820;SDS011;37186;51.394;5.454;2023-05-20T15:18:29;22.48;;;21.70;;
26820;SDS011;37186;51.394;5.454;2023-05-20T15:21:30;25.55;;;24.67;;
26820;SDS011;37186;51.394;5.454;2023-05-20T15:24:30;30.15;;;29.10;;
26820;SDS011;37186;51.394;5.454;2023-05-20T15:27:31;33.08;;;31.90;;
26820;SDS011;37186;51.394;5.454;2023-05-20T15:30:31;26.75;;;25.85;;
26820;SDS011;37186;51.394;5.454;2023-05-20T15:33:32;24.77;;;23.92;;
26820;SDS011;37186;51.394;5.454;2023-05-20T15:36:32;22.85;;;22.10;;
26820;SDS011;37186;51.394;5.454;2023-05-20T15:39:35;23.35;;;22.55;;
26820;SDS011;37186;51.394;5.454;2023-05-20T15:42:37;25.45;;;24.60;;
26820;SDS011;37186;51.394;5.454;2023-05-20T15:45:38;24.98;;;24.13;;
26820;SDS011;37186;51.394;5.454;2023-05-20T15:48:38;24.90;;;24.05;;
26820;SDS011;37186;51.394;5.454;2023-05-20T15:51:40;17.58;;;17.02;;
26820;SDS011;37186;51.394;5.454;2023-05-20T15:54:40;15.95;;;15.45;;
26820;SDS011;37186;51.394;5.454;2023-05-20T15:57:41;15.52;;;15.02;;
26820;SDS011;37186;51.394;5.454;2023-05-20T16:00:41;15.52;;;15.02;;
26820;SDS011;37186;51.394;5.454;2023-05-20T16:03:42;15.27;;;14.80;;
26820;SDS011;37186;51.394;5.454;2023-05-20T16:06:42;16.48;;;15.98;;
26820;SDS011;37186;51.394;5.454;2023-05-20T16:09:43;15.00;;;14.52;;
26820;SDS011;37186;51.394;5.454;2023-05-20T16:12:44;15.98;;;15.48;;
26820;SDS011;37186;51.394;5.454;2023-05-20T16:15:45;17.02;;;16.50;;
26820;SDS011;37186;51.394;5.454;2023-05-20T16:18:46;18.83;;;18.23;;
26820;SDS011;37186;51.394;5.454;2023-05-20T16:21:46;18.92;;;18.33;;
26820;SDS011;37186;51.394;5.454;2023-05-20T16:24:47;22.10;;;21.40;;
26820;SDS011;37186;51.394;5.454;2023-05-20T16:27:47;21.60;;;20.90;;
26820;SDS011;37186;51.394;5.454;2023-05-20T16:30:48;20.75;;;20.05;;
26820;SDS011;37186;51.394;5.454;2023-05-20T16:33:48;21.90;;;21.20;;
26820;SDS011;37186;51.394;5.454;2023-05-20T16:36:49;20.38;;;19.70;;
26820;SDS011;37186;51.394;5.454;2023-05-20T16:39:49;23.23;;;22.42;;
26820;SDS011;37186;51.394;5.454;2023-05-20T16:42:50;24.98;;;24.13;;
26820;SDS011;37186;51.394;5.454;2023-05-20T16:45:51;26.58;;;25.67;;
26820;SDS011;37186;51.394;5.454;2023-05-20T16:48:52;26.65;;;25.73;;
26820;SDS011;37186;51.394;5.454;2023-05-20T16:51:52;26.15;;;25.27;;
26820;SDS011;37186;51.394;5.454;2023-05-20T16:54:53;22.42;;;21.67;;
26820;SDS011;37186;51.394;5.454;2023-05-20T16:57:56;32.28;;;31.13;;
26820;SDS011;37186;51.394;5.454;2023-05-20T17:00:56;29.98;;;28.92;;
26820;SDS011;37186;51.394;5.454;2023-05-20T17:03:57;23.00;;;22.20;;
26820;SDS011;37186;51.394;5.454;2023-05-20T17:06:57;27.83;;;26.88;;
26820;SDS011;37186;51.394;5.454;2023-05-20T17:10:00;24.15;;;23.35;;
26820;SDS011;37186;51.394;5.454;2023-05-20T17:13:01;18.42;;;17.83;;
26820;SDS011;37186;51.394;5.454;2023-05-20T17:16:01;19.02;;;18.42;;
26820;SDS011;37186;51.394;5.454;2023-05-20T17:19:02;23.23;;;22.45;;
26820;SDS011;37186;51.394;5.454;2023-05-20T17:22:02;19.80;;;19.15;;
26820;SDS011;37186;51.394;5.454;2023-05-20T17:25:03;22.48;;;21.73;;
26820;SDS011;37186;51.394;5.454;2023-05-20T17:28:04;26.27;;;25.38;;
26820;SDS011;37186;51.394;5.454;2023-05-20T17:31:05;26.42;;;25.50;;
26820;SDS011;37186;51.394;5.454;2023-05-20T17:34:06;26.02;;;25.15;;
26820;SDS011;37186;51.394;5.454;2023-05-20T17:37:06;25.15;;;24.27;;
26820;SDS011;37186;51.394;5.454;2023-05-20T17:40:07;22.65;;;21.90;;
26820;SDS011;37186;51.394;5.454;2023-05-20T17:43:09;17.40;;;16.85;;
26820;SDS011;37186;51.394;5.454;2023-05-20T17:46:10;14.32;;;13.88;;
26820;SDS011;37186;51.394;5.454;2023-05-20T17:49:11;13.27;;;12.88;;
26820;SDS011;37186;51.394;5.454;2023-05-20T17:52:11;13.27;;;12.88;;
26820;SDS011;37186;51.394;5.454;2023-05-20T17:55:12;16.17;;;15.68;;
26820;SDS011;37186;51.394;5.454;2023-05-20T17:58:13;16.92;;;16.42;;
26820;SDS011;37186;51.394;5.454;2023-05-20T18:01:14;17.73;;;17.15;;